Time;durP1;ratioP1;P1;durP2;ratioP2;P2;SDS_P1;SDS_P2;PMS_P1;PMS_P2;Temp;Humidity;BMP_temperature;BMP_pressure;BME280_temperature;BME280_humidity;BME280_pressure;Samples;Min_cycle;Max_cycle;Signal;HPM_P1;HPM_P2
2022/06/30 00:01:33;;;;;;;4.85;3.70;;;;;;;19.79;72.32;98176.50;4136315;28;20299;-55
2022/06/30 00:03:35;;;;;;;4.97;4.57;;;;;;;19.76;72.73;98179.09;4138234;28;20236;-58
2022/06/30 00:05:37;;;;;;;7.35;3.60;;;;;;;19.73;72.24;98175.03;4132281;28;20681;-57
2022/06/30 00:07:38;;;;;;;3.97;3.67;;;;;;;19.70;72.36;98172.03;4136513;28;20648;-58
2022/06/30 00:09:40;;;;;;;4.43;4.00;;;;;;;19.67;72.72;98175.47;4135710;28;20602;-58
2022/06/30 00:11:41;;;;;;;4.03;3.60;;;;;;;19.67;72.70;98183.78;4132353;28;20573;-58
2022/06/30 00:13:43;;;;;;;4.22;3.92;;;;;;;19.59;72.73;98182.56;4150826;28;20299;-58
2022/06/30 00:15:45;;;;;;;4.50;4.10;;;;;;;19.55;72.63;98180.75;4138721;28;20201;-58
2022/06/30 00:17:47;;;;;;;4.93;4.07;;;;;;;19.54;72.60;98179.13;4134311;28;20292;-58
2022/06/30 00:19:48;;;;;;;5.63;4.32;;;;;;;19.54;72.71;98181.91;4136807;28;20311;-58
2022/06/30 00:21:50;;;;;;;3.65;3.35;;;;;;;19.54;72.72;98184.69;4136417;28;20291;-58
2022/06/30 00:23:51;;;;;;;5.68;4.40;;;;;;;19.52;72.81;98176.66;4135615;28;20279;-57
2022/06/30 00:25:53;;;;;;;4.13;3.83;;;;;;;19.51;72.64;98180.56;4134728;28;20244;-58
2022/06/30 00:27:55;;;;;;;4.15;3.75;;;;;;;19.49;72.66;98184.78;4134192;28;20201;-57
2022/06/30 00:29:57;;;;;;;4.40;3.92;;;;;;;19.46;72.59;98182.66;4135774;28;20260;-58
2022/06/30 00:31:58;;;;;;;5.18;4.70;;;;;;;19.42;72.87;98182.47;4130692;28;20212;-57
2022/06/30 00:34:00;;;;;;;3.92;3.55;;;;;;;19.38;72.84;98186.19;4150673;28;20220;-57
2022/06/30 00:36:02;;;;;;;4.25;3.80;;;;;;;19.36;72.69;98186.50;4147849;28;20299;-58
2022/06/30 00:38:04;;;;;;;4.32;4.03;;;;;;;19.35;72.74;98192.34;4132217;28;20543;-57
2022/06/30 00:40:06;;;;;;;4.18;3.45;;;;;;;19.32;72.83;98188.25;4132638;28;20296;-57
2022/06/30 00:42:08;;;;;;;4.55;3.97;;;;;;;19.32;72.68;98181.91;4138405;28;20292;-58
2022/06/30 00:44:13;;;;;;;4.47;3.50;;;;;;;19.30;72.95;98189.69;4136799;28;20213;-57
2022/06/30 00:46:15;;;;;;;4.05;3.67;;;;;;;19.27;73.23;98187.56;4135250;28;20306;-58
2022/06/30 00:48:18;;;;;;;4.68;4.05;;;;;;;19.27;73.06;98180.06;4138445;28;20235;-57
2022/06/30 00:50:20;;;;;;;4.10;3.83;;;;;;;19.26;73.32;98180.38;4135897;28;20253;-58
2022/06/30 00:52:24;;;;;;;4.47;3.72;;;;;;;19.23;73.23;98178.22;4137943;28;20308;-57
2022/06/30 00:54:26;;;;;;;4.70;4.30;;;;;;;19.18;73.33;98181.91;4139429;28;20312;-57
2022/06/30 00:56:27;;;;;;;5.15;4.75;;;;;;;19.15;73.30;98176.16;4133473;28;20300;-56
2022/06/30 00:58:30;;;;;;;4.30;3.92;;;;;;;19.11;73.30;98175.16;4136952;28;20236;-58
2022/06/30 01:00:39;;;;;;;4.28;3.90;;;;;;;19.08;73.10;98181.31;4135148;28;20300;-57
2022/06/30 01:02:41;;;;;;;5.13;4.82;;;;;;;19.06;73.37;98170.53;4131757;28;20208;-57
2022/06/30 01:04:43;;;;;;;4.07;3.67;;;;;;;19.02;73.40;98169.53;4136765;28;20200;-57
2022/06/30 01:06:46;;;;;;;4.93;4.60;;;;;;;18.98;73.62;98176.03;4137289;28;20651;-58
2022/06/30 01:08:48;;;;;;;4.40;4.10;;;;;;;18.95;73.86;98173.88;4138341;28;20221;-57
2022/06/30 01:13:10;;;;;;;4.50;4.10;;;;;;;18.92;73.51;98172.53;4135900;28;20212;-58
2022/06/30 01:15:16;;;;;;;4.68;4.15;;;;;;;18.89;73.58;98173.16;4119791;28;20214;-56
2022/06/30 01:17:18;;;;;;;4.53;4.18;;;;;;;18.84;73.74;98164.16;4120287;28;20694;-56
2022/06/30 01:19:20;;;;;;;8.10;4.70;;;;;;;18.79;73.85;98170.59;4137649;28;20230;-56
2022/06/30 01:21:25;;;;;;;5.43;3.78;;;;;;;18.78;73.93;98170.94;4137154;28;20209;-56
2022/06/30 01:23:27;;;;;;;4.25;3.95;;;;;;;18.77;73.77;98177.63;4137655;28;20348;-57
2022/06/30 01:25:29;;;;;;;3.60;3.30;;;;;;;18.75;73.74;98172.38;4137124;28;20635;-57
2022/06/30 01:27:31;;;;;;;4.78;4.38;;;;;;;18.74;73.77;98176.28;4152206;28;20252;-57
2022/06/30 01:29:32;;;;;;;3.75;3.53;;;;;;;18.70;73.83;98169.72;4148776;28;20223;-56
2022/06/30 01:31:34;;;;;;;4.13;3.83;;;;;;;18.70;73.94;98169.72;4134905;28;20695;-57
2022/06/30 01:33:36;;;;;;;3.45;3.20;;;;;;;18.70;74.13;98177.19;4122440;28;20669;-57
2022/06/30 01:35:38;;;;;;;4.15;3.85;;;;;;;18.68;74.08;98171.16;4135336;28;20233;-58
2022/06/30 01:37:58;;;;;;;4.07;3.10;;;;;;;18.64;73.77;98175.69;4134847;28;20230;-56
2022/06/30 01:40:00;;;;;;;4.68;4.38;;;;;;;18.63;74.09;98174.84;4135160;28;20553;-58
2022/06/30 01:42:02;;;;;;;4.55;4.22;;;;;;;18.59;74.22;98178.56;4136962;28;20218;-58
2022/06/30 01:44:04;;;;;;;4.45;4.15;;;;;;;18.53;74.18;98171.47;4133914;28;20215;-58
2022/06/30 01:46:06;;;;;;;4.15;3.85;;;;;;;18.49;74.25;98167.69;4133178;28;20305;-57
2022/06/30 01:48:08;;;;;;;5.05;4.63;;;;;;;18.46;74.39;98162.78;4136518;28;20258;-56
2022/06/30 01:50:14;;;;;;;5.22;4.75;;;;;;;18.45;74.77;98163.91;4136728;28;20681;-57
2022/06/30 01:52:15;;;;;;;4.22;3.92;;;;;;;18.43;75.00;98160.59;4137418;28;20193;-58
2022/06/30 01:54:17;;;;;;;3.70;3.40;;;;;;;18.43;75.24;98163.38;4136967;28;20252;-57
2022/06/30 01:56:19;;;;;;;4.07;3.78;;;;;;;18.42;74.99;98167.28;4134075;28;20202;-57
2022/06/30 01:58:27;;;;;;;4.10;3.75;;;;;;;18.42;74.91;98164.50;4132406;28;20225;-58
2022/06/30 02:00:29;;;;;;;3.80;3.15;;;;;;;18.41;74.93;98162.88;4135230;28;20205;-57
2022/06/30 02:02:31;;;;;;;4.53;3.90;;;;;;;18.41;74.88;98160.09;4151732;28;20220;-56
2022/06/30 02:04:47;;;;;;;6.38;4.00;;;;;;;18.41;74.63;98171.19;4135172;28;20328;-58
2022/06/30 02:06:49;;;;;;;4.55;3.33;;;;;;;18.45;74.90;98161.13;4139360;28;20212;-57
2022/06/30 02:08:51;;;;;;;4.90;3.25;;;;;;;18.44;75.02;98165.84;4132610;28;20365;-58
2022/06/30 02:10:52;;;;;;;5.93;3.55;;;;;;;18.43;74.65;98158.66;4135374;28;20850;-57
2022/06/30 02:12:54;;;;;;;4.82;4.43;;;;;;;18.40;74.41;98158.47;4136403;28;22385;-58
2022/06/30 02:14:56;;;;;;;3.88;3.58;;;;;;;18.36;74.60;98161.03;4132773;28;20204;-57
2022/06/30 02:16:58;;;;;;;4.47;4.07;;;;;;;18.31;74.49;98160.31;4139205;28;20212;-57
2022/06/30 02:18:59;;;;;;;4.13;3.80;;;;;;;18.27;74.79;98153.72;4137865;28;20328;-57
2022/06/30 02:21:01;;;;;;;6.20;4.22;;;;;;;18.25;74.66;98153.22;4137801;28;20292;-57
2022/06/30 02:23:03;;;;;;;4.10;3.80;;;;;;;18.23;74.74;98147.97;4140921;28;20217;-57
2022/06/30 02:25:06;;;;;;;3.85;3.55;;;;;;;18.22;74.66;98145.50;4136931;28;20221;-58
2022/06/30 02:27:07;;;;;;;4.03;3.72;;;;;;;18.21;74.73;98149.41;4133924;28;20741;-56
2022/06/30 02:29:09;;;;;;;3.63;3.40;;;;;;;18.18;74.94;98144.50;4118638;28;20657;-56
2022/06/30 02:31:12;;;;;;;3.65;3.35;;;;;;;18.15;75.06;98142.31;4150862;28;20308;-57
2022/06/30 02:33:15;;;;;;;4.15;3.33;;;;;;;18.15;75.25;98145.09;4138494;28;20280;-56
2022/06/30 02:35:17;;;;;;;4.30;4.00;;;;;;;18.14;75.08;98143.44;4135285;28;20484;-57
2022/06/30 02:37:19;;;;;;;3.97;3.67;;;;;;;18.11;74.82;98155.16;4152797;28;20196;-57
2022/06/30 02:39:20;;;;;;;5.13;4.63;;;;;;;18.08;74.88;98153.00;4156213;28;20217;-57
2022/06/30 02:41:22;;;;;;;3.95;3.65;;;;;;;18.07;74.85;98151.34;4148874;28;20701;-58
2022/06/30 02:43:23;;;;;;;4.05;3.58;;;;;;;18.04;74.91;98151.97;4142286;28;20560;-58
2022/06/30 02:45:25;;;;;;;3.63;3.33;;;;;;;18.01;74.62;98145.09;4133027;28;20207;-55
2022/06/30 02:47:34;;;;;;;5.18;3.65;;;;;;;17.98;74.77;98156.78;4135262;28;20730;-56
2022/06/30 02:49:38;;;;;;;6.22;3.17;;;;;;;17.96;74.86;98153.50;4133948;28;20661;-55
2022/06/30 02:51:39;;;;;;;4.22;3.65;;;;;;;17.93;74.92;98153.28;4151169;28;20308;-57
2022/06/30 02:53:41;;;;;;;3.95;3.65;;;;;;;17.90;74.73;98159.41;4131413;28;20241;-57
2022/06/30 02:55:43;;;;;;;4.15;3.58;;;;;;;17.86;75.18;98153.69;4133752;28;20292;-57
2022/06/30 02:57:44;;;;;;;4.00;3.60;;;;;;;17.84;75.08;98155.13;4135111;28;20562;-58
2022/06/30 02:59:46;;;;;;;3.72;3.42;;;;;;;17.83;75.01;98156.25;4119704;28;20254;-56
2022/06/30 03:01:48;;;;;;;4.43;4.13;;;;;;;17.83;75.14;98156.25;4151782;28;20324;-57
2022/06/30 03:03:49;;;;;;;4.28;3.90;;;;;;;17.80;74.93;98159.63;4135829;28;20234;-56
2022/06/30 03:05:51;;;;;;;11.07;4.65;;;;;;;17.78;75.30;98153.59;4122387;28;20285;-55
2022/06/30 03:07:53;;;;;;;4.38;4.07;;;;;;;17.76;74.88;98144.75;4136766;28;20210;-56
2022/06/30 03:09:54;;;;;;;4.60;4.28;;;;;;;17.71;75.47;98153.16;4138132;28;20225;-56
2022/06/30 03:11:56;;;;;;;4.05;3.75;;;;;;;17.67;75.67;98152.13;4137559;28;20316;-56
2022/06/30 03:13:57;;;;;;;6.15;3.38;;;;;;;17.61;75.35;98150.56;4141000;28;20674;-56
2022/06/30 03:16:01;;;;;;;8.75;3.08;;;;;;;17.58;75.67;98154.75;4140781;28;20309;-56
2022/06/30 03:18:03;;;;;;;3.88;3.58;;;;;;;17.55;75.70;98158.16;4146778;28;20216;-56
2022/06/30 03:20:05;;;;;;;4.60;3.65;;;;;;;17.56;75.82;98164.47;4133316;28;20243;-56
2022/06/30 03:22:07;;;;;;;3.60;3.33;;;;;;;17.55;75.60;98158.16;4133606;28;20568;-57
2022/06/30 03:24:09;;;;;;;3.70;3.40;;;;;;;17.55;75.79;98162.84;4134736;28;20288;-57
2022/06/30 03:26:10;;;;;;;3.95;3.65;;;;;;;17.54;75.66;98155.66;4135040;28;20243;-56
2022/06/30 03:28:13;;;;;;;3.70;3.35;;;;;;;17.56;75.54;98150.66;4134872;28;20206;-57
2022/06/30 03:30:14;;;;;;;3.80;3.00;;;;;;;17.56;75.49;98145.94;4130360;28;20209;-56
2022/06/30 03:32:16;;;;;;;3.15;2.85;;;;;;;17.55;75.59;98141.53;4114830;28;20737;-56
2022/06/30 03:34:18;;;;;;;3.70;3.40;;;;;;;17.53;75.47;98142.97;4134565;28;20727;-56
2022/06/30 03:36:20;;;;;;;3.10;2.83;;;;;;;17.52;75.53;98144.09;4133753;28;20289;-56
2022/06/30 03:38:22;;;;;;;2.95;2.75;;;;;;;17.50;75.25;98151.84;4134017;28;20265;-57
2022/06/30 03:40:23;;;;;;;3.10;2.90;;;;;;;17.48;75.24;98151.34;4133260;28;20205;-58
2022/06/30 03:42:25;;;;;;;4.65;3.67;;;;;;;17.47;75.15;98155.25;4136786;28;20208;-57
2022/06/30 03:44:26;;;;;;;3.42;3.22;;;;;;;17.47;75.01;98149.72;4120069;28;20676;-57
2022/06/30 03:46:28;;;;;;;9.98;3.75;;;;;;;17.45;74.93;98141.72;4134700;28;20301;-57
2022/06/30 03:48:30;;;;;;;2.97;2.78;;;;;;;17.45;75.17;98146.44;4121055;28;20316;-57
2022/06/30 03:50:32;;;;;;;3.55;3.25;;;;;;;17.45;75.01;98146.44;4129904;28;20463;-56
2022/06/30 03:52:34;;;;;;;7.00;3.40;;;;;;;17.41;74.92;98145.38;4137061;28;20300;-57
2022/06/30 03:54:36;;;;;;;3.53;3.22;;;;;;;17.36;75.21;98149.03;4132975;28;20682;-57
2022/06/30 03:56:37;;;;;;;3.65;3.35;;;;;;;17.30;75.38;98160.47;4132168;28;20292;-57
2022/06/30 03:58:39;;;;;;;4.35;4.15;;;;;;;17.30;75.65;98154.94;4134014;28;20321;-57
2022/06/30 04:00:41;;;;;;;3.88;3.58;;;;;;;17.29;75.57;98154.13;4134792;28;20697;-57
2022/06/30 04:02:43;;;;;;;4.43;4.13;;;;;;;17.27;75.28;98161.09;4133190;28;20304;-58
2022/06/30 04:04:44;;;;;;;3.70;3.35;;;;;;;17.20;75.75;98150.38;4128871;28;20301;-57
2022/06/30 04:06:46;;;;;;;4.15;3.78;;;;;;;17.19;75.76;98159.00;4131987;28;20216;-57
2022/06/30 04:08:48;;;;;;;3.47;3.17;;;;;;;17.19;75.77;98159.00;4132897;28;20587;-57
2022/06/30 04:10:50;;;;;;;3.67;3.47;;;;;;;17.17;76.14;98161.25;4133104;28;20206;-57
2022/06/30 04:12:51;;;;;;;3.70;3.40;;;;;;;17.18;75.82;98166.47;4134185;28;20203;-57
2022/06/30 04:14:53;;;;;;;3.80;3.25;;;;;;;17.18;75.99;98157.38;4150359;28;20701;-57
2022/06/30 04:16:54;;;;;;;4.47;4.10;;;;;;;17.19;76.05;98159.00;4135855;28;20682;-57
2022/06/30 04:18:56;;;;;;;3.53;3.33;;;;;;;17.19;75.87;98161.78;4136071;28;20229;-57
2022/06/30 04:20:58;;;;;;;4.70;3.50;;;;;;;17.21;75.78;98162.28;4134650;28;20201;-56
2022/06/30 04:23:00;;;;;;;3.88;3.58;;;;;;;17.23;76.14;98162.81;4139931;28;20789;-56
2022/06/30 04:25:08;;;;;;;3.42;3.22;;;;;;;17.26;76.02;98164.97;4134388;28;20613;-57
2022/06/30 04:27:12;;;;;;;4.07;3.70;;;;;;;17.29;75.92;98167.13;4151062;28;20205;-55
2022/06/30 04:29:14;;;;;;;4.18;3.42;;;;;;;17.32;75.86;98170.13;4135032;28;20230;-56
2022/06/30 04:33:37;;;;;;;6.10;3.47;;;;;;;17.37;75.91;98158.16;4149342;28;20296;-55
2022/06/30 04:35:39;;;;;;;3.60;3.30;;;;;;;17.37;75.87;98155.41;4134011;28;20225;-55
2022/06/30 04:37:41;;;;;;;7.95;3.72;;;;;;;17.38;76.45;98157.06;4153207;28;20219;-57
2022/06/30 04:39:43;;;;;;;4.25;3.90;;;;;;;17.40;76.37;98147.31;4137405;28;20305;-56
2022/06/30 04:41:45;;;;;;;4.75;4.22;;;;;;;17.37;77.18;98144.34;4136345;28;20657;-57
2022/06/30 04:43:46;;;;;;;8.23;4.60;;;;;;;17.24;78.08;98139.53;4139012;28;20260;-56
2022/06/30 04:45:48;;;;;;;5.90;4.05;;;;;;;17.24;78.38;98134.00;4134129;28;20205;-57
2022/06/30 04:47:50;;;;;;;4.95;4.55;;;;;;;17.19;78.85;98136.88;4139000;28;20205;-56
2022/06/30 04:49:52;;;;;;;8.40;4.43;;;;;;;17.28;78.31;98141.44;4138134;28;20253;-56
2022/06/30 04:51:54;;;;;;;4.82;4.13;;;;;;;17.30;78.33;98133.66;4141797;28;20272;-57
2022/06/30 04:53:56;;;;;;;7.82;5.00;;;;;;;17.36;78.40;98142.66;4140682;28;20201;-56
2022/06/30 04:55:58;;;;;;;4.63;4.25;;;;;;;17.41;77.93;98131.56;4135234;28;20206;-55
2022/06/30 04:58:00;;;;;;;5.80;4.53;;;;;;;17.43;78.34;98126.53;4154354;28;20272;-57
2022/06/30 05:00:05;;;;;;;4.97;4.57;;;;;;;17.30;79.78;98125.34;4151412;28;20578;-57
2022/06/30 05:02:07;;;;;;;5.60;4.63;;;;;;;17.42;79.04;98124.88;4136623;28;20218;-57
2022/06/30 05:04:09;;;;;;;5.40;4.30;;;;;;;17.44;79.28;98123.47;4135268;28;20233;-56
2022/06/30 05:06:11;;;;;;;3.58;3.28;;;;;;;17.51;78.37;98118.38;4153154;28;20858;-56
2022/06/30 05:08:14;;;;;;;5.60;4.45;;;;;;;17.58;78.15;98116.00;4140083;28;20221;-57
2022/06/30 05:10:16;;;;;;;6.22;4.85;;;;;;;17.67;77.90;98116.13;4141924;28;20766;-56
2022/06/30 05:12:18;;;;;;;4.60;4.20;;;;;;;17.73;78.06;98114.91;4133478;28;20236;-56
2022/06/30 05:14:20;;;;;;;4.78;4.38;;;;;;;17.73;78.99;98120.47;4137882;28;20237;-56
2022/06/30 05:16:22;;;;;;;4.80;4.32;;;;;;;17.80;78.59;98120.88;4125966;28;20212;-57
2022/06/30 05:18:26;;;;;;;5.47;4.45;;;;;;;17.86;78.30;98126.00;4133759;28;20217;-56
2022/06/30 05:20:33;;;;;;;6.68;4.68;;;;;;;17.96;78.48;98125.81;4133816;28;20213;-57
2022/06/30 05:22:39;;;;;;;4.40;4.05;;;;;;;17.99;78.27;98118.84;4134469;28;20324;-56
2022/06/30 05:27:04;;;;;;;4.90;4.50;;;;;;;18.16;77.80;98114.31;4135540;28;20218;-57
2022/06/30 05:29:08;;;;;;;4.40;4.05;;;;;;;18.25;77.26;98118.00;4142652;28;20247;-57
2022/06/30 05:31:12;;;;;;;4.25;3.85;;;;;;;18.37;77.02;98131.34;4147222;28;20233;-56
2022/06/30 05:33:21;;;;;;;5.93;4.10;;;;;;;18.47;76.60;98125.59;4151047;28;20299;-56
2022/06/30 05:35:26;;;;;;;7.55;4.65;;;;;;;18.59;76.51;98123.13;4123725;28;20217;-55
2022/06/30 05:37:35;;;;;;;6.95;3.78;;;;;;;18.68;76.25;98122.09;4140943;28;20198;-56
2022/06/30 05:39:38;;;;;;;3.97;3.67;;;;;;;18.83;76.38;98123.66;4120485;28;20253;-55
2022/06/30 05:41:42;;;;;;;4.55;4.20;;;;;;;18.92;76.19;98127.34;4125931;28;20336;-56
2022/06/30 05:43:45;;;;;;;5.90;4.82;;;;;;;19.07;77.42;98129.75;4123365;28;20289;-55
2022/06/30 05:45:53;;;;;;;4.55;4.18;;;;;;;19.25;77.57;98129.59;4137726;28;20202;-56
2022/06/30 05:47:57;;;;;;;4.35;4.05;;;;;;;19.47;76.45;98123.22;4152322;28;20310;-56
2022/06/30 05:50:00;;;;;;;5.15;3.85;;;;;;;19.63;75.93;98133.63;4139546;28;20221;-56
2022/06/30 05:52:03;;;;;;;5.80;3.25;;;;;;;19.77;74.92;98128.00;4152929;28;21482;-56
2022/06/30 05:54:06;;;;;;;4.85;3.08;;;;;;;19.84;74.09;98118.06;4122932;28;20241;-56
2022/06/30 05:56:10;;;;;;;3.92;3.63;;;;;;;19.97;74.20;98110.78;4122963;28;20210;-56
2022/06/30 05:58:17;;;;;;;7.07;4.18;;;;;;;20.07;74.70;98110.50;4138960;28;20263;-56
2022/06/30 06:00:21;;;;;;;5.97;4.20;;;;;;;20.02;74.45;98107.84;4122369;28;20206;-56
2022/06/30 06:02:25;;;;;;;5.32;4.93;;;;;;;19.92;76.40;98108.94;4122009;28;20606;-56
2022/06/30 06:04:29;;;;;;;4.70;4.10;;;;;;;20.17;74.31;98091.59;4134331;28;20201;-55
2022/06/30 06:06:32;;;;;;;4.22;3.92;;;;;;;20.27;74.18;98098.81;4135174;28;20261;-57
2022/06/30 06:08:35;;;;;;;4.85;3.83;;;;;;;20.34;74.55;98096.38;4140110;28;20253;-56
2022/06/30 06:10:38;;;;;;;4.68;4.22;;;;;;;20.32;75.05;98090.34;4126513;28;20209;-57
2022/06/30 06:12:43;;;;;;;3.85;3.42;;;;;;;20.55;74.33;98094.63;4137133;28;20217;-56
2022/06/30 06:14:48;;;;;;;5.40;3.97;;;;;;;20.67;74.39;98094.81;4132131;28;20224;-57
2022/06/30 06:16:53;;;;;;;5.78;3.50;;;;;;;20.88;73.14;98104.19;4136676;28;20254;-57
2022/06/30 06:18:56;;;;;;;4.10;3.70;;;;;;;21.05;72.47;98098.63;4132359;28;20232;-56
2022/06/30 06:20:59;;;;;;;4.22;3.58;;;;;;;21.22;72.67;98115.31;4137846;28;20661;-56
2022/06/30 06:23:20;;;;;;;3.90;3.03;;;;;;;21.38;71.43;98120.03;4141021;28;20613;-58
2022/06/30 06:25:24;;;;;;;4.22;3.92;;;;;;;21.53;70.95;98121.50;4153531;28;20212;-57
2022/06/30 06:27:27;;;;;;;4.35;3.83;;;;;;;21.65;71.27;98125.22;4132445;28;20302;-57
2022/06/30 06:29:29;;;;;;;3.63;3.33;;;;;;;21.75;70.98;98132.47;4135194;28;20758;-57
2022/06/30 06:31:32;;;;;;;3.80;3.17;;;;;;;21.84;70.25;98133.28;4116460;28;20205;-56
2022/06/30 06:33:34;;;;;;;4.00;3.78;;;;;;;22.01;70.03;98133.19;4134054;28;20213;-56
2022/06/30 06:35:37;;;;;;;3.20;2.90;;;;;;;22.07;70.04;98129.09;4125858;28;20216;-57
2022/06/30 06:37:39;;;;;;;3.33;3.05;;;;;;;22.12;69.67;98129.72;4137551;28;20198;-57
2022/06/30 06:39:41;;;;;;;6.50;3.95;;;;;;;22.25;69.26;98139.03;4134105;28;20602;-57
2022/06/30 06:41:43;;;;;;;4.30;3.58;;;;;;;22.45;68.81;98138.31;4136698;28;20201;-57
2022/06/30 06:43:45;;;;;;;4.13;2.78;;;;;;;22.41;68.51;98134.50;4125717;28;20269;-57
2022/06/30 06:45:47;;;;;;;3.90;2.97;;;;;;;22.33;68.01;98130.63;4135711;28;20274;-56
2022/06/30 06:47:49;;;;;;;3.92;3.10;;;;;;;22.39;68.38;98136.81;4138002;28;20239;-55
2022/06/30 06:49:51;;;;;;;3.88;3.35;;;;;;;22.47;68.09;98130.41;4136232;28;20299;-56
2022/06/30 06:51:53;;;;;;;4.22;3.85;;;;;;;22.51;67.82;98132.19;4136992;28;20247;-56
2022/06/30 06:53:55;;;;;;;3.35;3.05;;;;;;;22.75;68.31;98120.38;4150134;28;20778;-56
2022/06/30 06:55:57;;;;;;;4.40;2.40;;;;;;;22.73;67.88;98119.91;4135703;28;20771;-56
2022/06/30 06:57:58;;;;;;;3.20;2.92;;;;;;;22.97;67.04;98117.28;4137335;28;20292;-56
2022/06/30 07:00:02;;;;;;;4.55;3.30;;;;;;;23.08;66.52;98124.91;4119971;28;20667;-58
2022/06/30 07:02:04;;;;;;;2.92;2.72;;;;;;;23.10;67.16;98116.22;4124967;28;20205;-57
2022/06/30 07:17:42;;;;;;;3.15;2.72;;;;;;;24.40;64.19;98129.00;4125810;28;20267;-57
2022/06/30 07:19:44;;;;;;;5.28;3.00;;;;;;;24.49;64.06;98126.09;4115241;28;20646;-58
2022/06/30 07:21:45;;;;;;;3.25;2.45;;;;;;;24.74;63.78;98127.75;4117678;28;20220;-56
2022/06/30 07:23:47;;;;;;;3.83;2.60;;;;;;;24.79;62.69;98130.31;4118601;28;20229;-57
2022/06/30 07:25:48;;;;;;;2.47;2.20;;;;;;;24.92;63.03;98129.94;4136409;28;20304;-57
2022/06/30 07:27:50;;;;;;;4.03;2.55;;;;;;;25.13;62.58;98124.97;4121348;28;20202;-57
2022/06/30 07:29:56;;;;;;;3.92;2.72;;;;;;;25.16;61.42;98124.28;4131373;28;20316;-57
2022/06/30 07:31:57;;;;;;;2.67;2.35;;;;;;;25.36;62.16;98116.91;4121077;28;20206;-57
2022/06/30 07:33:59;;;;;;;4.25;2.28;;;;;;;25.48;62.61;98120.47;4122412;28;20304;-57
2022/06/30 07:36:01;;;;;;;3.17;2.22;;;;;;;25.58;61.09;98124.75;4125846;28;20220;-56
2022/06/30 07:38:02;;;;;;;3.42;2.58;;;;;;;25.86;61.30;98117.94;4122040;28;20250;-58
2022/06/30 07:40:05;;;;;;;2.30;2.10;;;;;;;25.88;57.92;98112.81;4117553;28;20233;-57
2022/06/30 07:42:12;;;;;;;2.35;1.90;;;;;;;25.95;59.31;98118.66;4136136;28;20637;-56
2022/06/30 07:44:16;;;;;;;2.38;2.00;;;;;;;26.13;59.50;98119.13;4132934;28;20209;-58
2022/06/30 07:46:19;;;;;;;2.40;2.20;;;;;;;26.17;59.49;98120.81;4136206;28;20700;-57
2022/06/30 07:48:21;;;;;;;3.35;2.15;;;;;;;26.41;59.19;98120.66;4119874;28;20229;-57
2022/06/30 07:50:22;;;;;;;4.22;2.65;;;;;;;26.50;59.17;98124.09;4136441;28;20240;-57
2022/06/30 07:52:24;;;;;;;2.45;2.03;;;;;;;26.61;58.83;98119.59;4117240;28;20229;-58
2022/06/30 07:54:26;;;;;;;6.47;2.20;;;;;;;26.79;58.28;98125.63;4118884;28;20206;-58
2022/06/30 07:56:28;;;;;;;2.10;1.92;;;;;;;26.95;57.44;98116.00;4133118;28;20279;-58
2022/06/30 07:58:29;;;;;;;3.47;2.45;;;;;;;26.97;55.29;98122.06;4116651;28;20277;-58
2022/06/30 08:00:31;;;;;;;2.33;1.92;;;;;;;26.57;54.64;98129.91;4133052;28;20460;-58
2022/06/30 08:02:32;;;;;;;12.07;1.70;;;;;;;26.29;53.80;98117.94;4121865;28;20645;-58
2022/06/30 08:04:35;;;;;;;2.10;1.80;;;;;;;26.77;54.89;98120.38;4123923;28;20320;-57
2022/06/30 08:06:37;;;;;;;2.97;2.67;;;;;;;26.75;54.66;98124.72;4123954;28;20578;-58
2022/06/30 08:08:39;;;;;;;1.60;1.50;;;;;;;27.18;56.10;98118.97;4134472;28;20304;-58
2022/06/30 08:10:41;;;;;;;3.25;2.17;;;;;;;27.54;56.21;98116.53;4135148;28;20706;-57
2022/06/30 08:12:43;;;;;;;3.28;1.65;;;;;;;26.95;50.86;98116.00;4117925;28;20315;-58
2022/06/30 08:14:46;;;;;;;3.72;1.38;;;;;;;27.03;51.97;98114.97;4117645;28;20727;-57
2022/06/30 08:16:48;;;;;;;3.20;1.80;;;;;;;26.86;51.76;98112.56;4137081;28;20281;-57
2022/06/30 08:18:50;;;;;;;2.47;1.77;;;;;;;27.33;53.79;98107.63;4118076;28;20525;-58
2022/06/30 08:20:51;;;;;;;2.47;1.77;;;;;;;27.69;53.34;98110.00;4136041;28;20413;-57
2022/06/30 08:22:53;;;;;;;3.03;1.70;;;;;;;27.88;53.40;98112.00;4121966;28;20634;-57
2022/06/30 08:24:55;;;;;;;4.18;2.42;;;;;;;27.87;52.29;98111.22;4125241;28;20304;-58
2022/06/30 08:26:58;;;;;;;3.25;1.90;;;;;;;28.37;52.19;98113.78;4136704;28;20235;-58
2022/06/30 08:29:00;;;;;;;3.55;1.50;;;;;;;27.88;46.80;98112.84;4130110;28;20352;-58
2022/06/30 08:31:02;;;;;;;3.10;1.50;;;;;;;27.93;47.41;98098.44;4115927;28;20248;-58
2022/06/30 08:33:04;;;;;;;1.70;1.17;;;;;;;27.93;46.73;98114.53;4111713;28;20359;-58
2022/06/30 08:35:06;;;;;;;2.53;1.33;;;;;;;28.18;49.07;98099.72;4119635;28;20787;-58
2022/06/30 08:37:08;;;;;;;1.30;1.20;;;;;;;28.49;49.98;98096.69;4132956;28;20312;-58
2022/06/30 08:42:02;;;;;;;2.58;1.33;;;;;;;28.68;50.00;98095.78;4116744;28;20229;-58
2022/06/30 08:43:53;;;;;;;2.30;1.10;;;;;;;27.89;47.20;98083.50;4127772;28;20287;-59
2022/06/30 08:45:56;;;;;;;1.33;1.25;;;;;;;28.17;47.75;98092.47;4102828;28;20218;-58
2022/06/30 08:47:57;;;;;;;1.60;1.33;;;;;;;28.35;46.63;98082.34;4119126;28;20601;-58
2022/06/30 08:49:59;;;;;;;1.27;1.17;;;;;;;28.83;48.82;98084.34;4132471;28;20308;-58
2022/06/30 08:52:01;;;;;;;1.35;1.20;;;;;;;28.95;47.03;98078.53;4119180;28;20240;-59
2022/06/30 08:54:03;;;;;;;2.00;1.50;;;;;;;29.30;47.94;98084.66;4132959;28;20630;-59
2022/06/30 08:56:05;;;;;;;2.58;1.15;;;;;;;29.59;47.75;98081.00;4131475;28;20213;-58
2022/06/30 08:58:08;;;;;;;2.80;1.55;;;;;;;29.44;44.41;98079.19;4131146;28;20248;-58
2022/06/30 09:00:12;;;;;;;2.13;1.15;;;;;;;28.52;44.90;98087.47;4111090;28;20760;-58
2022/06/30 09:02:13;;;;;;;2.83;1.50;;;;;;;28.45;47.70;98081.72;4114317;28;20234;-59
2022/06/30 09:04:15;;;;;;;2.13;1.80;;;;;;;28.54;45.85;98079.47;4118877;28;20202;-58
2022/06/30 09:06:17;;;;;;;2.35;1.38;;;;;;;28.16;45.28;98079.59;4101479;28;20210;-57
2022/06/30 09:08:35;;;;;;;8.10;1.73;;;;;;;27.94;44.73;98077.59;4111187;28;20257;-58
2022/06/30 09:10:47;;;;;;;1.20;1.10;;;;;;;28.34;46.11;98075.09;4123862;28;20301;-58
2022/06/30 09:13:04;;;;;;;2.60;0.95;;;;;;;28.24;44.47;98070.06;4123219;28;20351;-58
2022/06/30 09:15:06;;;;;;;2.03;1.20;;;;;;;28.07;44.98;98070.59;4129912;28;20236;-58
2022/06/30 09:17:14;;;;;;;3.47;1.20;;;;;;;27.77;46.07;98061.19;4106053;28;20213;-58
2022/06/30 09:19:16;;;;;;;2.17;1.10;;;;;;;27.56;46.01;98071.97;4134766;28;20254;-59
2022/06/30 09:21:19;;;;;;;1.67;1.23;;;;;;;27.57;47.83;98070.78;4108200;28;20214;-58
2022/06/30 09:23:30;;;;;;;1.27;1.17;;;;;;;27.61;48.77;98071.69;4122101;28;20217;-57
2022/06/30 09:25:34;;;;;;;1.98;1.20;;;;;;;27.55;47.78;98077.97;4122308;28;20213;-56
2022/06/30 09:27:39;;;;;;;1.30;0.90;;;;;;;27.77;47.67;98061.19;4122816;28;20313;-57
2022/06/30 09:29:49;;;;;;;2.28;1.20;;;;;;;28.08;45.69;98060.97;4127409;28;20253;-57
2022/06/30 09:32:12;;;;;;;1.92;1.23;;;;;;;28.42;48.05;98054.31;4143414;28;20205;-58
2022/06/30 09:34:21;;;;;;;1.60;1.13;;;;;;;28.34;45.85;98054.56;4126523;28;20228;-56
2022/06/30 09:36:28;;;;;;;1.55;1.45;;;;;;;28.40;44.63;98059.50;4135698;28;20839;-56
2022/06/30 09:38:33;;;;;;;2.28;1.30;;;;;;;28.46;45.83;98060.00;4132464;28;20225;-57
2022/06/30 09:40:38;;;;;;;2.05;1.40;;;;;;;28.46;47.07;98052.38;4117997;28;20214;-58
2022/06/30 09:42:46;;;;;;;3.60;1.38;;;;;;;28.35;48.03;98054.19;4119543;28;20214;-57
2022/06/30 09:44:58;;;;;;;1.60;0.95;;;;;;;27.97;45.00;98059.94;4122297;28;20209;-57
2022/06/30 09:47:06;;;;;;;1.73;1.30;;;;;;;27.84;45.79;98055.69;4123373;28;20217;-57
2022/06/30 09:49:10;;;;;;;3.25;1.27;;;;;;;28.36;45.38;98055.84;4121607;28;20231;-58
2022/06/30 09:51:14;;;;;;;1.42;1.15;;;;;;;28.71;46.95;98055.59;4106834;28;20206;-56
2022/06/30 09:53:18;;;;;;;2.55;1.40;;;;;;;28.64;46.08;98056.28;4137782;28;20227;-58
2022/06/30 09:55:21;;;;;;;3.97;1.30;;;;;;;28.96;46.74;98051.97;4134340;28;20216;-56
2022/06/30 09:57:27;;;;;;;1.80;1.40;;;;;;;28.71;44.20;98045.13;4136779;28;20303;-55
2022/06/30 09:59:30;;;;;;;2.53;1.30;;;;;;;28.67;44.05;98047.09;4109605;28;20235;-55
2022/06/30 10:01:51;;;;;;;1.63;1.52;;;;;;;27.89;44.92;98046.94;4104127;28;20230;-54
2022/06/30 10:04:00;;;;;;;3.53;1.90;;;;;;;28.37;45.91;98051.81;4108304;28;20211;-56